Terminal Aerodrome Forecast
Issued by NWS

Home | Current Version | Previous Version | Text Only | Print | Product List | Glossary On
Versions: 1 2 3 4 5 6 7 8 9 10 11 12 13 14 15
936
FTUS44 KLIX 172339
TAFMSY
TAF
KMSY 172339Z 1800/1906 17006KT P6SM FEW025 FEW200
     FM181000 19005KT 5SM BR FEW008 SCT250
     FM181300 20008KT 5SM BR SCT003 BKN060
     FM181500 21012KT P6SM SCT008 BKN030
     FM181800 22015G24KT P6SM SCT025 BKN035
     FM182200 23014G22KT P6SM SCT020 BKN030 PROB30 1823/1901 4SM
      -SHRA BKN015
     FM190100 27013KT P6SM SCT010 BKN025 PROB30 1901/1905 4SM -SHRA
      BKN008=

USA.gov is the U.S. government's official web portal to all federal, state and local government web resources and services.